sensor_id;sensor_type;location;lat;lon;timestamp;P1;durP1;ratioP1;P2;durP2;ratioP2
4460;SDS011;2243;48.812;9.232;2022-10-16T00:00:41;3.03;;;2.80;;
4460;SDS011;2243;48.812;9.232;2022-10-16T00:03:13;8.20;;;2.20;;
4460;SDS011;2243;48.812;9.232;2022-10-16T00:05:44;5.47;;;2.53;;
4460;SDS011;2243;48.812;9.232;2022-10-16T00:08:15;6.07;;;2.97;;
4460;SDS011;2243;48.812;9.232;2022-10-16T00:10:46;2.97;;;2.10;;
4460;SDS011;2243;48.812;9.232;2022-10-16T00:13:17;3.10;;;2.20;;
4460;SDS011;2243;48.812;9.232;2022-10-16T00:15:49;3.20;;;2.57;;
4460;SDS011;2243;48.812;9.232;2022-10-16T00:18:20;4.20;;;2.80;;
4460;SDS011;2243;48.812;9.232;2022-10-16T00:20:51;2.50;;;2.40;;
4460;SDS011;2243;48.812;9.232;2022-10-16T00:23:22;3.00;;;2.53;;
4460;SDS011;2243;48.812;9.232;2022-10-16T00:25:54;2.73;;;2.30;;
4460;SDS011;2243;48.812;9.232;2022-10-16T00:28:27;7.53;;;2.40;;
4460;SDS011;2243;48.812;9.232;2022-10-16T00:30:58;3.10;;;2.40;;
4460;SDS011;2243;48.812;9.232;2022-10-16T00:33:37;7.33;;;2.53;;
4460;SDS011;2243;48.812;9.232;2022-10-16T00:36:11;5.90;;;2.30;;
4460;SDS011;2243;48.812;9.232;2022-10-16T00:38:45;3.50;;;2.20;;
4460;SDS011;2243;48.812;9.232;2022-10-16T00:41:17;2.40;;;2.30;;
4460;SDS011;2243;48.812;9.232;2022-10-16T00:43:55;2.73;;;2.43;;
4460;SDS011;2243;48.812;9.232;2022-10-16T00:46:38;2.70;;;2.50;;
4460;SDS011;2243;48.812;9.232;2022-10-16T00:49:12;7.33;;;2.50;;
4460;SDS011;2243;48.812;9.232;2022-10-16T00:51:50;3.33;;;2.40;;
4460;SDS011;2243;48.812;9.232;2022-10-16T00:54:27;3.10;;;2.50;;
4460;SDS011;2243;48.812;9.232;2022-10-16T00:57:01;4.10;;;2.80;;
4460;SDS011;2243;48.812;9.232;2022-10-16T00:59:37;3.07;;;2.67;;
4460;SDS011;2243;48.812;9.232;2022-10-16T01:02:12;2.80;;;2.70;;
4460;SDS011;2243;48.812;9.232;2022-10-16T01:04:46;6.83;;;2.73;;
4460;SDS011;2243;48.812;9.232;2022-10-16T01:10:32;2.80;;;2.60;;
4460;SDS011;2243;48.812;9.232;2022-10-16T01:13:16;8.30;;;2.57;;
4460;SDS011;2243;48.812;9.232;2022-10-16T01:18:30;3.00;;;2.80;;
4460;SDS011;2243;48.812;9.232;2022-10-16T01:21:12;3.60;;;2.40;;
4460;SDS011;2243;48.812;9.232;2022-10-16T01:24:03;2.77;;;2.57;;
4460;SDS011;2243;48.812;9.232;2022-10-16T01:35:21;2.67;;;2.47;;
4460;SDS011;2243;48.812;9.232;2022-10-16T01:38:06;6.93;;;2.60;;
4460;SDS011;2243;48.812;9.232;2022-10-16T01:40:45;3.17;;;2.63;;
4460;SDS011;2243;48.812;9.232;2022-10-16T01:43:41;5.23;;;3.43;;
4460;SDS011;2243;48.812;9.232;2022-10-16T01:46:18;2.63;;;2.43;;
4460;SDS011;2243;48.812;9.232;2022-10-16T01:48:51;2.90;;;2.70;;
4460;SDS011;2243;48.812;9.232;2022-10-16T01:51:23;2.83;;;2.47;;
4460;SDS011;2243;48.812;9.232;2022-10-16T01:53:56;2.90;;;2.70;;
4460;SDS011;2243;48.812;9.232;2022-10-16T01:56:31;3.20;;;3.00;;
4460;SDS011;2243;48.812;9.232;2022-10-16T01:59:05;3.23;;;3.03;;
4460;SDS011;2243;48.812;9.232;2022-10-16T02:01:42;3.23;;;2.60;;
4460;SDS011;2243;48.812;9.232;2022-10-16T02:04:37;5.20;;;3.00;;
4460;SDS011;2243;48.812;9.232;2022-10-16T02:07:34;6.40;;;3.10;;
4460;SDS011;2243;48.812;9.232;2022-10-16T02:10:05;3.00;;;2.90;;
4460;SDS011;2243;48.812;9.232;2022-10-16T02:12:37;5.70;;;2.60;;
4460;SDS011;2243;48.812;9.232;2022-10-16T02:15:13;3.30;;;3.03;;
4460;SDS011;2243;48.812;9.232;2022-10-16T02:17:44;3.73;;;2.80;;
4460;SDS011;2243;48.812;9.232;2022-10-16T02:20:15;6.60;;;2.87;;
4460;SDS011;2243;48.812;9.232;2022-10-16T02:22:47;5.17;;;3.13;;
4460;SDS011;2243;48.812;9.232;2022-10-16T02:25:27;3.23;;;2.93;;
4460;SDS011;2243;48.812;9.232;2022-10-16T02:30:39;5.13;;;3.53;;
4460;SDS011;2243;48.812;9.232;2022-10-16T02:33:19;3.00;;;2.77;;
4460;SDS011;2243;48.812;9.232;2022-10-16T02:35:52;3.30;;;3.10;;
4460;SDS011;2243;48.812;9.232;2022-10-16T02:38:24;3.23;;;2.97;;
4460;SDS011;2243;48.812;9.232;2022-10-16T02:40:56;3.20;;;2.90;;
4460;SDS011;2243;48.812;9.232;2022-10-16T02:43:27;2.90;;;2.70;;
4460;SDS011;2243;48.812;9.232;2022-10-16T02:45:58;2.97;;;2.77;;
4460;SDS011;2243;48.812;9.232;2022-10-16T02:48:30;2.70;;;2.50;;
4460;SDS011;2243;48.812;9.232;2022-10-16T02:51:01;3.20;;;2.20;;
4460;SDS011;2243;48.812;9.232;2022-10-16T02:53:31;4.20;;;2.80;;
4460;SDS011;2243;48.812;9.232;2022-10-16T02:56:02;2.63;;;2.43;;
4460;SDS011;2243;48.812;9.232;2022-10-16T02:58:34;4.63;;;2.67;;
4460;SDS011;2243;48.812;9.232;2022-10-16T03:01:04;4.43;;;2.97;;
4460;SDS011;2243;48.812;9.232;2022-10-16T03:03:35;3.10;;;2.37;;
4460;SDS011;2243;48.812;9.232;2022-10-16T03:06:06;3.40;;;2.90;;
4460;SDS011;2243;48.812;9.232;2022-10-16T03:08:37;2.70;;;2.50;;
4460;SDS011;2243;48.812;9.232;2022-10-16T03:11:08;5.00;;;3.23;;
4460;SDS011;2243;48.812;9.232;2022-10-16T03:13:39;2.90;;;2.70;;
4460;SDS011;2243;48.812;9.232;2022-10-16T03:16:10;4.60;;;2.53;;
4460;SDS011;2243;48.812;9.232;2022-10-16T03:18:41;3.90;;;2.47;;
4460;SDS011;2243;48.812;9.232;2022-10-16T03:21:12;3.17;;;2.87;;
4460;SDS011;2243;48.812;9.232;2022-10-16T03:23:43;2.70;;;2.27;;
4460;SDS011;2243;48.812;9.232;2022-10-16T03:26:14;4.80;;;2.30;;
4460;SDS011;2243;48.812;9.232;2022-10-16T03:28:44;2.77;;;2.57;;
4460;SDS011;2243;48.812;9.232;2022-10-16T03:31:15;4.47;;;2.90;;
4460;SDS011;2243;48.812;9.232;2022-10-16T03:33:46;3.93;;;2.40;;
4460;SDS011;2243;48.812;9.232;2022-10-16T03:36:17;2.90;;;2.60;;
4460;SDS011;2243;48.812;9.232;2022-10-16T03:38:48;2.90;;;2.53;;
4460;SDS011;2243;48.812;9.232;2022-10-16T03:41:19;2.50;;;2.30;;
4460;SDS011;2243;48.812;9.232;2022-10-16T03:43:50;2.93;;;2.73;;
4460;SDS011;2243;48.812;9.232;2022-10-16T03:46:21;6.77;;;2.03;;
4460;SDS011;2243;48.812;9.232;2022-10-16T03:48:52;2.43;;;2.33;;
4460;SDS011;2243;48.812;9.232;2022-10-16T03:51:23;4.60;;;2.17;;
4460;SDS011;2243;48.812;9.232;2022-10-16T03:53:54;2.50;;;2.40;;
4460;SDS011;2243;48.812;9.232;2022-10-16T03:56:25;3.33;;;2.73;;
4460;SDS011;2243;48.812;9.232;2022-10-16T03:58:56;2.50;;;2.40;;
4460;SDS011;2243;48.812;9.232;2022-10-16T04:01:27;3.13;;;2.50;;
4460;SDS011;2243;48.812;9.232;2022-10-16T04:03:58;5.00;;;2.43;;
4460;SDS011;2243;48.812;9.232;2022-10-16T04:06:29;2.50;;;2.40;;
4460;SDS011;2243;48.812;9.232;2022-10-16T04:09:00;2.67;;;2.47;;
4460;SDS011;2243;48.812;9.232;2022-10-16T04:11:31;3.57;;;2.53;;
4460;SDS011;2243;48.812;9.232;2022-10-16T04:14:02;4.80;;;2.77;;
4460;SDS011;2243;48.812;9.232;2022-10-16T04:16:33;2.90;;;2.50;;
4460;SDS011;2243;48.812;9.232;2022-10-16T04:19:03;7.40;;;2.97;;
4460;SDS011;2243;48.812;9.232;2022-10-16T04:21:35;2.10;;;2.00;;
4460;SDS011;2243;48.812;9.232;2022-10-16T04:24:07;2.83;;;2.50;;
4460;SDS011;2243;48.812;9.232;2022-10-16T04:26:37;2.80;;;2.60;;
4460;SDS011;2243;48.812;9.232;2022-10-16T04:29:08;2.93;;;2.43;;
4460;SDS011;2243;48.812;9.232;2022-10-16T04:31:39;4.20;;;2.00;;
4460;SDS011;2243;48.812;9.232;2022-10-16T04:34:10;2.10;;;2.00;;
4460;SDS011;2243;48.812;9.232;2022-10-16T04:36:41;3.90;;;2.10;;
4460;SDS011;2243;48.812;9.232;2022-10-16T04:39:12;3.87;;;2.40;;
4460;SDS011;2243;48.812;9.232;2022-10-16T04:41:43;3.43;;;2.40;;
4460;SDS011;2243;48.812;9.232;2022-10-16T04:44:14;3.87;;;2.17;;
4460;SDS011;2243;48.812;9.232;2022-10-16T04:46:45;2.03;;;1.93;;
4460;SDS011;2243;48.812;9.232;2022-10-16T04:49:15;2.30;;;2.20;;
4460;SDS011;2243;48.812;9.232;2022-10-16T04:51:46;1.70;;;1.60;;
4460;SDS011;2243;48.812;9.232;2022-10-16T04:54:17;2.47;;;2.00;;
4460;SDS011;2243;48.812;9.232;2022-10-16T04:56:48;4.20;;;2.57;;
4460;SDS011;2243;48.812;9.232;2022-10-16T04:59:21;2.13;;;2.03;;
4460;SDS011;2243;48.812;9.232;2022-10-16T05:01:53;2.07;;;1.97;;
4460;SDS011;2243;48.812;9.232;2022-10-16T05:04:24;1.80;;;1.70;;
4460;SDS011;2243;48.812;9.232;2022-10-16T05:06:55;2.77;;;1.80;;
4460;SDS011;2243;48.812;9.232;2022-10-16T05:09:26;2.50;;;2.13;;
4460;SDS011;2243;48.812;9.232;2022-10-16T05:11:56;10.37;;;2.80;;
4460;SDS011;2243;48.812;9.232;2022-10-16T05:14:27;2.20;;;2.10;;
4460;SDS011;2243;48.812;9.232;2022-10-16T05:16:59;2.80;;;2.70;;
4460;SDS011;2243;48.812;9.232;2022-10-16T05:19:30;3.23;;;2.40;;
4460;SDS011;2243;48.812;9.232;2022-10-16T05:22:01;2.10;;;2.00;;
4460;SDS011;2243;48.812;9.232;2022-10-16T05:24:32;11.43;;;2.60;;
4460;SDS011;2243;48.812;9.232;2022-10-16T05:27:03;2.27;;;2.17;;
4460;SDS011;2243;48.812;9.232;2022-10-16T05:29:34;4.97;;;2.23;;
4460;SDS011;2243;48.812;9.232;2022-10-16T05:32:05;2.50;;;2.30;;
4460;SDS011;2243;48.812;9.232;2022-10-16T05:34:36;4.30;;;3.17;;
4460;SDS011;2243;48.812;9.232;2022-10-16T05:37:07;2.97;;;2.87;;
4460;SDS011;2243;48.812;9.232;2022-10-16T05:39:39;2.87;;;2.67;;
4460;SDS011;2243;48.812;9.232;2022-10-16T05:42:10;2.47;;;2.27;;
4460;SDS011;2243;48.812;9.232;2022-10-16T05:44:40;2.20;;;2.10;;
4460;SDS011;2243;48.812;9.232;2022-10-16T05:47:14;3.23;;;2.27;;
4460;SDS011;2243;48.812;9.232;2022-10-16T05:49:45;9.13;;;2.97;;
4460;SDS011;2243;48.812;9.232;2022-10-16T05:52:16;2.60;;;2.40;;
4460;SDS011;2243;48.812;9.232;2022-10-16T05:54:47;2.57;;;2.37;;
4460;SDS011;2243;48.812;9.232;2022-10-16T05:57:18;4.00;;;2.47;;
4460;SDS011;2243;48.812;9.232;2022-10-16T05:59:49;3.63;;;2.27;;
4460;SDS011;2243;48.812;9.232;2022-10-16T06:02:20;5.13;;;2.00;;
4460;SDS011;2243;48.812;9.232;2022-10-16T06:04:52;3.07;;;2.83;;
4460;SDS011;2243;48.812;9.232;2022-10-16T06:07:25;2.73;;;2.50;;
4460;SDS011;2243;48.812;9.232;2022-10-16T06:09:56;2.83;;;2.33;;
4460;SDS011;2243;48.812;9.232;2022-10-16T06:12:27;5.93;;;2.47;;
4460;SDS011;2243;48.812;9.232;2022-10-16T06:14:58;2.70;;;2.50;;
4460;SDS011;2243;48.812;9.232;2022-10-16T06:17:29;2.57;;;2.37;;
4460;SDS011;2243;48.812;9.232;2022-10-16T06:20:00;3.30;;;2.40;;
4460;SDS011;2243;48.812;9.232;2022-10-16T06:22:31;2.00;;;1.90;;
4460;SDS011;2243;48.812;9.232;2022-10-16T06:25:02;2.20;;;2.00;;
4460;SDS011;2243;48.812;9.232;2022-10-16T06:27:33;2.37;;;2.27;;
4460;SDS011;2243;48.812;9.232;2022-10-16T06:30:04;5.70;;;2.40;;
4460;SDS011;2243;48.812;9.232;2022-10-16T06:32:36;5.17;;;2.00;;
4460;SDS011;2243;48.812;9.232;2022-10-16T06:35:07;2.83;;;2.30;;
4460;SDS011;2243;48.812;9.232;2022-10-16T06:37:38;3.70;;;2.23;;
4460;SDS011;2243;48.812;9.232;2022-10-16T06:40:09;6.40;;;2.60;;
4460;SDS011;2243;48.812;9.232;2022-10-16T06:42:40;5.13;;;2.23;;
4460;SDS011;2243;48.812;9.232;2022-10-16T06:45:12;2.80;;;2.57;;
4460;SDS011;2243;48.812;9.232;2022-10-16T06:47:43;2.90;;;2.60;;
4460;SDS011;2243;48.812;9.232;2022-10-16T06:50:14;2.77;;;2.57;;
4460;SDS011;2243;48.812;9.232;2022-10-16T06:52:45;2.60;;;2.40;;
4460;SDS011;2243;48.812;9.232;2022-10-16T06:55:17;3.23;;;2.50;;
4460;SDS011;2243;48.812;9.232;2022-10-16T06:57:48;10.20;;;3.40;;
4460;SDS011;2243;48.812;9.232;2022-10-16T07:00:22;3.63;;;3.07;;
4460;SDS011;2243;48.812;9.232;2022-10-16T07:02:58;3.20;;;2.53;;
4460;SDS011;2243;48.812;9.232;2022-10-16T07:05:29;3.47;;;2.60;;
4460;SDS011;2243;48.812;9.232;2022-10-16T07:07:59;7.50;;;4.57;;
4460;SDS011;2243;48.812;9.232;2022-10-16T07:10:33;26.27;;;17.00;;
4460;SDS011;2243;48.812;9.232;2022-10-16T07:13:05;77.03;;;45.40;;
4460;SDS011;2243;48.812;9.232;2022-10-16T07:15:37;45.70;;;29.70;;
4460;SDS011;2243;48.812;9.232;2022-10-16T07:18:08;26.07;;;17.47;;
4460;SDS011;2243;48.812;9.232;2022-10-16T07:20:40;37.53;;;22.53;;
4460;SDS011;2243;48.812;9.232;2022-10-16T07:23:11;35.10;;;18.20;;
4460;SDS011;2243;48.812;9.232;2022-10-16T07:25:42;6.13;;;3.70;;
4460;SDS011;2243;48.812;9.232;2022-10-16T07:28:13;3.20;;;2.90;;
4460;SDS011;2243;48.812;9.232;2022-10-16T07:30:43;3.00;;;2.70;;
4460;SDS011;2243;48.812;9.232;2022-10-16T07:33:14;4.03;;;3.37;;
4460;SDS011;2243;48.812;9.232;2022-10-16T07:35:49;2.90;;;2.70;;
4460;SDS011;2243;48.812;9.232;2022-10-16T07:38:24;3.47;;;3.20;;
4460;SDS011;2243;48.812;9.232;2022-10-16T07:41:02;6.60;;;3.17;;
4460;SDS011;2243;48.812;9.232;2022-10-16T07:43:35;7.13;;;2.83;;
4460;SDS011;2243;48.812;9.232;2022-10-16T07:46:07;9.63;;;2.97;;
4460;SDS011;2243;48.812;9.232;2022-10-16T07:48:37;1698.83;;;999.90;;
4460;SDS011;2243;48.812;9.232;2022-10-16T07:51:08;1782.17;;;968.87;;
4460;SDS011;2243;48.812;9.232;2022-10-16T07:53:44;414.13;;;227.27;;
4460;SDS011;2243;48.812;9.232;2022-10-16T07:56:17;26.50;;;14.70;;
4460;SDS011;2243;48.812;9.232;2022-10-16T07:58:49;5.00;;;2.87;;
4460;SDS011;2243;48.812;9.232;2022-10-16T08:01:21;2.63;;;2.43;;
4460;SDS011;2243;48.812;9.232;2022-10-16T08:03:52;2.70;;;2.50;;
4460;SDS011;2243;48.812;9.232;2022-10-16T08:06:23;2.70;;;2.50;;
4460;SDS011;2243;48.812;9.232;2022-10-16T08:08:57;2.67;;;2.43;;
4460;SDS011;2243;48.812;9.232;2022-10-16T08:11:30;3.20;;;2.70;;
4460;SDS011;2243;48.812;9.232;2022-10-16T08:14:01;4.63;;;2.70;;
4460;SDS011;2243;48.812;9.232;2022-10-16T08:16:31;3.70;;;2.60;;
4460;SDS011;2243;48.812;9.232;2022-10-16T08:19:02;2.30;;;2.20;;
4460;SDS011;2243;48.812;9.232;2022-10-16T08:21:33;2.60;;;2.40;;
4460;SDS011;2243;48.812;9.232;2022-10-16T08:24:09;2.50;;;2.40;;
4460;SDS011;2243;48.812;9.232;2022-10-16T08:26:40;2.80;;;2.60;;
4460;SDS011;2243;48.812;9.232;2022-10-16T08:29:12;2.23;;;1.80;;
4460;SDS011;2243;48.812;9.232;2022-10-16T08:31:44;2.13;;;2.03;;
4460;SDS011;2243;48.812;9.232;2022-10-16T08:34:15;1.87;;;1.77;;
4460;SDS011;2243;48.812;9.232;2022-10-16T08:36:46;2.83;;;2.23;;
4460;SDS011;2243;48.812;9.232;2022-10-16T08:39:17;3.83;;;1.90;;
4460;SDS011;2243;48.812;9.232;2022-10-16T08:49:11;1.97;;;1.87;;
4460;SDS011;2243;48.812;9.232;2022-10-16T08:51:20;8.20;;;1.97;;
4460;SDS011;2243;48.812;9.232;2022-10-16T08:53:57;2.00;;;1.80;;
4460;SDS011;2243;48.812;9.232;2022-10-16T08:56:35;2.03;;;1.93;;
4460;SDS011;2243;48.812;9.232;2022-10-16T08:59:06;2.47;;;2.27;;
4460;SDS011;2243;48.812;9.232;2022-10-16T09:01:42;7.17;;;2.17;;
4460;SDS011;2243;48.812;9.232;2022-10-16T09:04:41;2.40;;;2.30;;
4460;SDS011;2243;48.812;9.232;2022-10-16T09:16:28;4.90;;;1.90;;
4460;SDS011;2243;48.812;9.232;2022-10-16T09:19:13;2.00;;;1.90;;
4460;SDS011;2243;48.812;9.232;2022-10-16T09:22:10;4.50;;;1.90;;
4460;SDS011;2243;48.812;9.232;2022-10-16T09:24:45;1.90;;;1.80;;
4460;SDS011;2243;48.812;9.232;2022-10-16T09:27:16;2.70;;;1.80;;
4460;SDS011;2243;48.812;9.232;2022-10-16T09:29:47;7.20;;;2.40;;
4460;SDS011;2243;48.812;9.232;2022-10-16T09:32:19;2.30;;;2.10;;
4460;SDS011;2243;48.812;9.232;2022-10-16T09:34:52;2.03;;;1.93;;
4460;SDS011;2243;48.812;9.232;2022-10-16T09:37:28;7.63;;;2.00;;
4460;SDS011;2243;48.812;9.232;2022-10-16T09:40:01;7.53;;;2.17;;
4460;SDS011;2243;48.812;9.232;2022-10-16T09:42:36;1.87;;;1.67;;
4460;SDS011;2243;48.812;9.232;2022-10-16T09:45:19;2.37;;;1.60;;
4460;SDS011;2243;48.812;9.232;2022-10-16T09:47:53;2.33;;;1.67;;
4460;SDS011;2243;48.812;9.232;2022-10-16T09:50:27;1.87;;;1.77;;
4460;SDS011;2243;48.812;9.232;2022-10-16T09:53:07;2.80;;;1.80;;
4460;SDS011;2243;48.812;9.232;2022-10-16T09:55:48;1.60;;;1.50;;
4460;SDS011;2243;48.812;9.232;2022-10-16T09:58:23;3.37;;;2.30;;
4460;SDS011;2243;48.812;9.232;2022-10-16T10:00:55;2.90;;;1.93;;
4460;SDS011;2243;48.812;9.232;2022-10-16T10:03:37;3.90;;;1.90;;
4460;SDS011;2243;48.812;9.232;2022-10-16T10:06:17;1.80;;;1.70;;
4460;SDS011;2243;48.812;9.232;2022-10-16T10:08:59;2.87;;;2.07;;
4460;SDS011;2243;48.812;9.232;2022-10-16T10:14:30;1.63;;;1.53;;
4460;SDS011;2243;48.812;9.232;2022-10-16T10:17:17;2.00;;;1.90;;
4460;SDS011;2243;48.812;9.232;2022-10-16T10:19:56;1.80;;;1.67;;
4460;SDS011;2243;48.812;9.232;2022-10-16T10:22:48;1.73;;;1.63;;
4460;SDS011;2243;48.812;9.232;2022-10-16T10:25:22;1.93;;;1.83;;
4460;SDS011;2243;48.812;9.232;2022-10-16T10:28:21;5.90;;;2.07;;
4460;SDS011;2243;48.812;9.232;2022-10-16T10:31:10;2.17;;;1.97;;
4460;SDS011;2243;48.812;9.232;2022-10-16T10:33:52;3.70;;;1.87;;
4460;SDS011;2243;48.812;9.232;2022-10-16T10:36:49;2.23;;;1.87;;
4460;SDS011;2243;48.812;9.232;2022-10-16T10:39:36;3.23;;;2.10;;
4460;SDS011;2243;48.812;9.232;2022-10-16T10:45:16;6.60;;;5.43;;
4460;SDS011;2243;48.812;9.232;2022-10-16T10:57:00;1.67;;;1.57;;
4460;SDS011;2243;48.812;9.232;2022-10-16T11:06:16;1.70;;;1.60;;
4460;SDS011;2243;48.812;9.232;2022-10-16T11:09:14;2.97;;;2.33;;
4460;SDS011;2243;48.812;9.232;2022-10-16T11:17:31;3.37;;;1.63;;
4460;SDS011;2243;48.812;9.232;2022-10-16T11:20:23;3.13;;;2.13;;
4460;SDS011;2243;48.812;9.232;2022-10-16T11:23:25;3.87;;;1.77;;
4460;SDS011;2243;48.812;9.232;2022-10-16T11:26:02;3.77;;;2.80;;
4460;SDS011;2243;48.812;9.232;2022-10-16T11:28:43;11.43;;;2.40;;
4460;SDS011;2243;48.812;9.232;2022-10-16T11:37:12;1.60;;;1.50;;
4460;SDS011;2243;48.812;9.232;2022-10-16T11:39:54;1.77;;;1.67;;
4460;SDS011;2243;48.812;9.232;2022-10-16T11:42:46;1.73;;;1.17;;
4460;SDS011;2243;48.812;9.232;2022-10-16T11:45:33;2.20;;;1.50;;
4460;SDS011;2243;48.812;9.232;2022-10-16T11:54:16;10.60;;;1.47;;
4460;SDS011;2243;48.812;9.232;2022-10-16T11:57:10;2.40;;;1.70;;
4460;SDS011;2243;48.812;9.232;2022-10-16T11:59:52;2.07;;;1.87;;
4460;SDS011;2243;48.812;9.232;2022-10-16T12:05:20;1.70;;;1.60;;
4460;SDS011;2243;48.812;9.232;2022-10-16T12:08:34;1.73;;;1.63;;
4460;SDS011;2243;48.812;9.232;2022-10-16T12:11:31;1.93;;;1.80;;
4460;SDS011;2243;48.812;9.232;2022-10-16T12:17:04;1.67;;;1.67;;
4460;SDS011;2243;48.812;9.232;2022-10-16T12:22:50;3.33;;;1.40;;
4460;SDS011;2243;48.812;9.232;2022-10-16T12:25:33;1.50;;;1.30;;
4460;SDS011;2243;48.812;9.232;2022-10-16T12:28:21;2.23;;;1.50;;
4460;SDS011;2243;48.812;9.232;2022-10-16T12:31:02;1.33;;;1.23;;
4460;SDS011;2243;48.812;9.232;2022-10-16T12:33:37;1.73;;;1.63;;
4460;SDS011;2243;48.812;9.232;2022-10-16T12:36:31;1.80;;;1.57;;
4460;SDS011;2243;48.812;9.232;2022-10-16T12:39:03;1.10;;;1.10;;
4460;SDS011;2243;48.812;9.232;2022-10-16T12:41:35;1.53;;;1.43;;
4460;SDS011;2243;48.812;9.232;2022-10-16T12:44:23;4.90;;;1.90;;
4460;SDS011;2243;48.812;9.232;2022-10-16T12:46:56;1.60;;;1.43;;
4460;SDS011;2243;48.812;9.232;2022-10-16T12:51:58;1.43;;;1.33;;
4460;SDS011;2243;48.812;9.232;2022-10-16T12:54:36;4.13;;;2.03;;
4460;SDS011;2243;48.812;9.232;2022-10-16T13:06:10;1.30;;;1.30;;
4460;SDS011;2243;48.812;9.232;2022-10-16T13:14:45;2.23;;;1.70;;
4460;SDS011;2243;48.812;9.232;2022-10-16T13:17:37;2.13;;;1.40;;
4460;SDS011;2243;48.812;9.232;2022-10-16T13:20:35;3.33;;;1.53;;
4460;SDS011;2243;48.812;9.232;2022-10-16T13:26:44;1.77;;;1.67;;
4460;SDS011;2243;48.812;9.232;2022-10-16T13:30:00;2.70;;;1.70;;
4460;SDS011;2243;48.812;9.232;2022-10-16T13:32:39;2.00;;;1.80;;
4460;SDS011;2243;48.812;9.232;2022-10-16T13:35:21;1.73;;;1.63;;
4460;SDS011;2243;48.812;9.232;2022-10-16T13:38:13;2.73;;;1.50;;
4460;SDS011;2243;48.812;9.232;2022-10-16T13:40:53;1.47;;;1.37;;
4460;SDS011;2243;48.812;9.232;2022-10-16T13:46:07;2.13;;;1.90;;
4460;SDS011;2243;48.812;9.232;2022-10-16T13:48:59;2.13;;;1.90;;
4460;SDS011;2243;48.812;9.232;2022-10-16T13:51:36;1.90;;;1.80;;
4460;SDS011;2243;48.812;9.232;2022-10-16T13:54:09;3.10;;;1.90;;
4460;SDS011;2243;48.812;9.232;2022-10-16T13:56:41;2.17;;;1.97;;
4460;SDS011;2243;48.812;9.232;2022-10-16T13:59:23;1.80;;;1.70;;
4460;SDS011;2243;48.812;9.232;2022-10-16T14:01:54;4.13;;;2.03;;
4460;SDS011;2243;48.812;9.232;2022-10-16T14:04:31;2.10;;;1.97;;
4460;SDS011;2243;48.812;9.232;2022-10-16T14:07:03;9.23;;;2.73;;
4460;SDS011;2243;48.812;9.232;2022-10-16T14:09:34;1.90;;;1.80;;
4460;SDS011;2243;48.812;9.232;2022-10-16T14:12:10;3.07;;;2.90;;
4460;SDS011;2243;48.812;9.232;2022-10-16T14:14:46;7.90;;;2.50;;
4460;SDS011;2243;48.812;9.232;2022-10-16T14:17:24;2.00;;;1.80;;
4460;SDS011;2243;48.812;9.232;2022-10-16T14:20:04;2.10;;;2.00;;
4460;SDS011;2243;48.812;9.232;2022-10-16T14:22:38;9.33;;;2.57;;
4460;SDS011;2243;48.812;9.232;2022-10-16T14:30:50;2.50;;;2.30;;
4460;SDS011;2243;48.812;9.232;2022-10-16T14:33:33;9.10;;;2.87;;
4460;SDS011;2243;48.812;9.232;2022-10-16T14:36:05;4.27;;;2.70;;
4460;SDS011;2243;48.812;9.232;2022-10-16T14:38:42;6.63;;;2.70;;
4460;SDS011;2243;48.812;9.232;2022-10-16T14:41:31;2.97;;;2.43;;
4460;SDS011;2243;48.812;9.232;2022-10-16T14:44:10;7.30;;;3.40;;
4460;SDS011;2243;48.812;9.232;2022-10-16T14:46:43;2.40;;;2.30;;
4460;SDS011;2243;48.812;9.232;2022-10-16T14:49:18;3.13;;;2.60;;
4460;SDS011;2243;48.812;9.232;2022-10-16T14:51:51;19.07;;;2.67;;
4460;SDS011;2243;48.812;9.232;2022-10-16T14:54:22;3.80;;;2.80;;
4460;SDS011;2243;48.812;9.232;2022-10-16T14:56:54;2.33;;;2.20;;
4460;SDS011;2243;48.812;9.232;2022-10-16T14:59:28;3.13;;;2.17;;
4460;SDS011;2243;48.812;9.232;2022-10-16T15:04:52;3.57;;;2.43;;
4460;SDS011;2243;48.812;9.232;2022-10-16T15:07:23;2.60;;;2.40;;
4460;SDS011;2243;48.812;9.232;2022-10-16T15:09:57;4.03;;;2.37;;
4460;SDS011;2243;48.812;9.232;2022-10-16T15:12:28;4.40;;;2.17;;
4460;SDS011;2243;48.812;9.232;2022-10-16T15:14:59;2.37;;;2.27;;
4460;SDS011;2243;48.812;9.232;2022-10-16T15:17:32;4.70;;;2.80;;
4460;SDS011;2243;48.812;9.232;2022-10-16T15:20:03;2.90;;;2.70;;
4460;SDS011;2243;48.812;9.232;2022-10-16T15:22:35;2.90;;;2.70;;
4460;SDS011;2243;48.812;9.232;2022-10-16T15:25:13;2.60;;;2.50;;
4460;SDS011;2243;48.812;9.232;2022-10-16T15:28:19;5.27;;;2.70;;
4460;SDS011;2243;48.812;9.232;2022-10-16T15:30:53;2.83;;;2.63;;
4460;SDS011;2243;48.812;9.232;2022-10-16T15:33:26;5.10;;;3.03;;
4460;SDS011;2243;48.812;9.232;2022-10-16T15:36:08;2.67;;;2.47;;
4460;SDS011;2243;48.812;9.232;2022-10-16T15:38:39;3.23;;;2.70;;
4460;SDS011;2243;48.812;9.232;2022-10-16T15:41:09;4.27;;;2.53;;
4460;SDS011;2243;48.812;9.232;2022-10-16T15:43:40;9.97;;;2.90;;
4460;SDS011;2243;48.812;9.232;2022-10-16T15:46:12;3.30;;;2.47;;
4460;SDS011;2243;48.812;9.232;2022-10-16T15:48:49;2.93;;;2.70;;
4460;SDS011;2243;48.812;9.232;2022-10-16T15:51:21;3.20;;;3.00;;
4460;SDS011;2243;48.812;9.232;2022-10-16T15:53:52;3.53;;;2.87;;
4460;SDS011;2243;48.812;9.232;2022-10-16T15:56:24;4.10;;;3.70;;
4460;SDS011;2243;48.812;9.232;2022-10-16T15:58:55;8.03;;;3.80;;
4460;SDS011;2243;48.812;9.232;2022-10-16T16:01:28;5.40;;;3.87;;
4460;SDS011;2243;48.812;9.232;2022-10-16T16:04:04;4.43;;;3.70;;
4460;SDS011;2243;48.812;9.232;2022-10-16T16:06:49;5.13;;;3.60;;
4460;SDS011;2243;48.812;9.232;2022-10-16T16:09:20;4.60;;;3.57;;
4460;SDS011;2243;48.812;9.232;2022-10-16T16:11:51;4.13;;;3.73;;
4460;SDS011;2243;48.812;9.232;2022-10-16T16:14:22;3.70;;;3.40;;
4460;SDS011;2243;48.812;9.232;2022-10-16T16:16:55;3.63;;;3.13;;
4460;SDS011;2243;48.812;9.232;2022-10-16T16:19:27;5.60;;;3.90;;
4460;SDS011;2243;48.812;9.232;2022-10-16T16:21:58;4.07;;;3.60;;
4460;SDS011;2243;48.812;9.232;2022-10-16T16:24:29;4.30;;;2.80;;
4460;SDS011;2243;48.812;9.232;2022-10-16T16:27:00;7.67;;;3.07;;
4460;SDS011;2243;48.812;9.232;2022-10-16T16:29:36;4.03;;;3.60;;
4460;SDS011;2243;48.812;9.232;2022-10-16T16:32:07;4.77;;;3.70;;
4460;SDS011;2243;48.812;9.232;2022-10-16T16:34:39;5.10;;;4.13;;
4460;SDS011;2243;48.812;9.232;2022-10-16T16:37:10;15.97;;;4.63;;
4460;SDS011;2243;48.812;9.232;2022-10-16T16:39:41;5.67;;;4.60;;
4460;SDS011;2243;48.812;9.232;2022-10-16T16:42:13;6.70;;;4.57;;
4460;SDS011;2243;48.812;9.232;2022-10-16T16:44:44;13.27;;;5.33;;
4460;SDS011;2243;48.812;9.232;2022-10-16T16:47:15;8.90;;;4.33;;
4460;SDS011;2243;48.812;9.232;2022-10-16T16:49:46;4.30;;;4.00;;
4460;SDS011;2243;48.812;9.232;2022-10-16T16:52:17;7.70;;;5.13;;
4460;SDS011;2243;48.812;9.232;2022-10-16T16:54:48;7.93;;;5.20;;
4460;SDS011;2243;48.812;9.232;2022-10-16T16:57:22;8.00;;;6.80;;
4460;SDS011;2243;48.812;9.232;2022-10-16T16:59:53;6.53;;;5.83;;
4460;SDS011;2243;48.812;9.232;2022-10-16T17:02:24;4.30;;;3.90;;
4460;SDS011;2243;48.812;9.232;2022-10-16T17:04:55;4.10;;;3.80;;
4460;SDS011;2243;48.812;9.232;2022-10-16T17:07:30;5.27;;;3.97;;
4460;SDS011;2243;48.812;9.232;2022-10-16T17:10:04;8.17;;;4.37;;
4460;SDS011;2243;48.812;9.232;2022-10-16T17:12:36;6.33;;;4.00;;
4460;SDS011;2243;48.812;9.232;2022-10-16T17:15:07;4.63;;;3.40;;
4460;SDS011;2243;48.812;9.232;2022-10-16T17:17:38;9.20;;;3.83;;
4460;SDS011;2243;48.812;9.232;2022-10-16T17:20:10;7.27;;;4.10;;
4460;SDS011;2243;48.812;9.232;2022-10-16T17:22:41;10.90;;;4.40;;
4460;SDS011;2243;48.812;9.232;2022-10-16T17:25:12;4.70;;;3.70;;
4460;SDS011;2243;48.812;9.232;2022-10-16T17:27:43;5.70;;;5.07;;
4460;SDS011;2243;48.812;9.232;2022-10-16T17:30:14;36.33;;;22.27;;
4460;SDS011;2243;48.812;9.232;2022-10-16T17:32:45;28.23;;;16.20;;
4460;SDS011;2243;48.812;9.232;2022-10-16T17:35:16;17.20;;;9.50;;
4460;SDS011;2243;48.812;9.232;2022-10-16T17:37:47;10.27;;;7.53;;
4460;SDS011;2243;48.812;9.232;2022-10-16T17:40:18;8.23;;;5.03;;
4460;SDS011;2243;48.812;9.232;2022-10-16T17:42:49;12.10;;;4.10;;
4460;SDS011;2243;48.812;9.232;2022-10-16T17:45:20;5.73;;;4.40;;
4460;SDS011;2243;48.812;9.232;2022-10-16T17:47:51;4.40;;;3.67;;
4460;SDS011;2243;48.812;9.232;2022-10-16T17:50:23;4.10;;;3.70;;
4460;SDS011;2243;48.812;9.232;2022-10-16T17:52:54;4.70;;;3.70;;
4460;SDS011;2243;48.812;9.232;2022-10-16T17:55:25;6.93;;;3.73;;